createdAt,value
2018-10-02T04:44:24.466Z,7.30
2018-10-02T04:45:23.408Z,7.34
2018-10-02T05:08:17.107Z,7.47
2018-10-02T05:09:16.500Z,7.48
2018-10-02T05:10:16.511Z,7.47
2018-10-02T05:11:16.744Z,7.57
2018-10-02T05:12:16.588Z,7.52
2018-10-02T05:13:16.358Z,7.50
2018-10-02T05:14:16.402Z,7.45
2018-10-02T05:15:16.390Z,7.52
2018-10-02T05:16:16.332Z,7.45
2018-10-02T05:19:46.883Z,7.50
2018-10-02T05:20:46.928Z,7.58
2018-10-02T05:21:47.505Z,7.57
2018-10-02T05:22:46.844Z,7.51
2018-10-02T05:28:30.750Z,7.62
2018-10-02T05:31:09.356Z,7.63
2018-10-02T05:32:09.788Z,7.63
2018-10-02T05:37:29.972Z,7.73
2018-10-02T05:38:29.903Z,7.63
2018-10-02T05:39:29.599Z,7.67
2018-10-02T05:40:33.000Z,7.73
2018-10-02T05:41:29.562Z,7.62
2018-10-02T05:42:29.512Z,7.69
2018-10-02T05:43:29.522Z,7.66
2018-10-02T05:44:29.959Z,7.66
2018-10-02T05:45:29.525Z,7.63
2018-10-02T05:46:29.470Z,7.70
2018-10-02T05:47:29.458Z,7.62
2018-10-02T05:48:29.473Z,7.67
2018-10-02T05:49:29.465Z,7.69
2018-10-02T05:50:29.450Z,7.55
2018-10-02T05:51:29.409Z,7.69
2018-10-02T05:52:29.388Z,7.62
2018-10-02T05:53:29.367Z,7.58
2018-10-02T05:54:29.359Z,7.57
2018-10-02T05:55:29.415Z,7.60
2018-10-02T05:56:29.389Z,7.60
2018-10-02T05:57:29.327Z,7.57
2018-10-02T05:58:29.441Z,7.62
2018-10-02T05:59:29.404Z,7.60
2018-10-02T06:00:29.317Z,7.54
2018-10-02T06:01:30.322Z,7.55
2018-10-02T06:02:29.296Z,7.63
2018-10-02T06:03:29.260Z,7.54
2018-10-02T06:04:29.308Z,7.47
2018-10-02T06:05:31.251Z,7.54
2018-10-02T06:06:29.238Z,7.52
2018-10-02T06:07:29.214Z,7.51
2018-10-02T06:08:29.218Z,7.55
2018-10-02T06:09:29.221Z,7.63
2018-10-02T06:10:29.194Z,7.57
2018-10-02T06:11:29.172Z,7.66
2018-10-02T06:12:29.190Z,7.52
2018-10-02T06:13:29.236Z,7.55
2018-10-02T06:14:29.125Z,7.58
2018-10-02T06:15:29.131Z,7.55
2018-10-02T06:16:29.135Z,7.66
2018-10-02T06:17:29.135Z,7.58
2018-10-02T06:18:29.089Z,7.58
2018-10-02T06:19:29.073Z,7.54
2018-10-02T06:20:29.070Z,7.55
2018-10-02T06:21:29.100Z,7.55
2018-10-02T06:22:29.102Z,7.55
2018-10-02T06:23:29.080Z,7.55
2018-10-02T06:24:29.018Z,7.52
2018-10-02T06:25:29.117Z,7.66
2018-10-02T06:26:29.031Z,7.58
2018-10-02T06:27:29.292Z,7.51
2018-10-02T06:28:28.988Z,7.63
2018-10-02T06:29:29.025Z,7.57
2018-10-02T06:30:29.109Z,7.67
2018-10-02T06:31:28.946Z,7.63
2018-10-02T06:32:28.961Z,7.58
2018-10-02T06:33:28.913Z,7.67
2018-10-02T06:34:29.000Z,7.67
2018-10-02T06:35:28.917Z,7.67
2018-10-02T06:36:28.941Z,7.67
2018-10-02T06:37:28.941Z,7.63
2018-10-02T06:38:29.085Z,7.60
2018-10-02T06:39:29.122Z,7.62
2018-10-02T06:40:28.924Z,7.62
2018-10-02T06:41:31.820Z,7.62
2018-10-02T06:42:28.877Z,7.67
2018-10-02T06:43:28.917Z,7.67
2018-10-02T06:44:28.952Z,7.63
2018-10-02T06:45:28.856Z,7.67
2018-10-02T06:46:28.833Z,7.67
2018-10-02T06:47:28.759Z,7.66
2018-10-02T06:48:28.775Z,7.69
2018-10-02T06:49:29.699Z,7.70
2018-10-02T06:50:28.776Z,7.67
2018-10-02T06:51:28.883Z,7.62
2018-10-02T06:52:28.985Z,7.60
2018-10-02T06:53:28.762Z,7.62
2018-10-02T06:54:28.710Z,7.66
2018-10-02T06:55:28.827Z,7.71
2018-10-02T06:56:28.834Z,7.71
2018-10-02T06:57:28.852Z,7.70
2018-10-02T06:58:29.753Z,7.66
2018-10-02T06:59:28.849Z,7.66
2018-10-02T07:00:29.022Z,7.70
2018-10-02T07:01:28.840Z,7.70
2018-10-02T07:02:28.828Z,7.74
2018-10-02T07:03:28.579Z,7.76
2018-10-02T07:04:28.609Z,7.62
2018-10-02T07:05:28.721Z,7.69
2018-10-02T07:06:28.606Z,7.73
2018-10-02T07:07:28.740Z,7.69
2018-10-02T07:08:28.670Z,7.63
2018-10-02T07:09:28.629Z,7.73
2018-10-02T07:10:28.508Z,7.67
2018-10-02T07:11:28.546Z,7.71
2018-10-02T07:12:28.709Z,7.66
2018-10-02T07:13:28.549Z,7.71
2018-10-02T07:14:28.675Z,7.71
2018-10-02T07:15:29.264Z,7.69
2018-10-02T07:16:28.440Z,7.76
2018-10-02T07:17:28.545Z,7.69
2018-10-02T07:18:28.453Z,7.77
2018-10-02T07:19:28.424Z,7.71
2018-10-02T07:20:28.485Z,7.81
2018-10-02T07:21:28.551Z,7.73
2018-10-02T07:22:28.600Z,7.73
2018-10-02T07:23:28.477Z,7.74
2018-10-02T07:24:28.399Z,7.81
2018-10-02T07:25:29.324Z,7.81
2018-10-02T07:26:28.368Z,7.74
2018-10-02T07:27:28.571Z,7.79
2018-10-02T07:28:28.403Z,7.77
2018-10-02T07:29:28.324Z,7.71
2018-10-02T07:30:28.347Z,7.79
2018-10-02T07:31:28.324Z,7.82
2018-10-02T07:32:28.315Z,7.82
2018-10-02T07:33:28.290Z,7.85
2018-10-02T07:34:28.240Z,7.84
2018-10-02T07:35:28.239Z,7.85
2018-10-02T07:36:28.326Z,7.86
2018-10-02T07:37:28.232Z,7.85
2018-10-02T07:38:28.358Z,7.88
2018-10-02T07:39:28.199Z,7.81
2018-10-02T07:40:28.229Z,7.95
2018-10-02T07:41:28.276Z,7.82
2018-10-02T07:42:28.187Z,7.94
2018-10-02T07:43:28.220Z,7.92
2018-10-02T07:44:28.295Z,7.85
2018-10-02T07:45:28.167Z,7.89
2018-10-02T07:46:28.160Z,7.89
2018-10-02T07:47:28.162Z,7.95
2018-10-02T07:48:28.301Z,7.99
2018-10-02T07:49:28.121Z,8.06
2018-10-02T07:50:28.113Z,7.99
2018-10-02T07:51:28.051Z,8.04
2018-10-02T07:52:28.056Z,8.06
2018-10-02T07:53:28.051Z,7.94
2018-10-02T07:54:28.034Z,7.96
2018-10-02T07:55:28.178Z,7.99
2018-10-02T07:56:28.006Z,7.89
2018-10-02T07:57:27.982Z,8.00
2018-10-02T07:58:28.064Z,7.92
2018-10-02T07:59:28.135Z,7.99
2018-10-02T08:00:27.953Z,8.09
2018-10-02T08:01:27.945Z,8.04
2018-10-02T08:02:27.946Z,8.07
2018-10-02T08:03:27.918Z,8.00
2018-10-02T08:04:27.986Z,8.04
2018-10-02T08:05:28.130Z,8.13
2018-10-02T08:06:27.895Z,8.13
2018-10-02T08:07:28.033Z,8.04
2018-10-02T08:08:27.905Z,8.09
2018-10-02T08:09:28.688Z,8.06
2018-10-02T08:10:27.941Z,8.07
2018-10-02T08:11:27.909Z,8.13
2018-10-02T08:12:28.083Z,8.13
2018-10-02T08:13:27.927Z,8.18
2018-10-02T08:14:27.867Z,8.20
2018-10-02T08:15:27.791Z,8.24
2018-10-02T08:16:27.773Z,8.25
2018-10-02T08:17:28.894Z,8.24
2018-10-02T08:18:27.879Z,8.22
2018-10-02T08:19:27.797Z,8.20
2018-10-02T08:20:28.899Z,8.24
2018-10-02T08:21:27.724Z,8.25
2018-10-02T08:22:27.746Z,8.17
2018-10-02T08:23:27.712Z,8.27
2018-10-02T08:24:27.818Z,8.18
2018-10-02T08:25:27.690Z,8.27
2018-10-02T08:26:27.700Z,8.29
2018-10-02T08:27:27.785Z,8.25
2018-10-02T08:28:27.635Z,8.27
2018-10-02T08:29:27.930Z,8.27
2018-10-02T08:30:27.751Z,8.29
2018-10-02T08:31:27.654Z,8.31
2018-10-02T08:32:27.643Z,8.28
2018-10-02T08:33:27.582Z,8.25
2018-10-02T08:34:27.569Z,8.32
2018-10-02T08:35:27.696Z,8.39
2018-10-02T08:36:27.621Z,8.31
2018-10-02T08:37:27.638Z,8.34
2018-10-02T08:38:27.567Z,8.34
2018-10-02T08:39:27.570Z,8.39
2018-10-02T08:40:28.296Z,8.36
2018-10-02T08:41:27.584Z,8.40
2018-10-02T08:42:27.488Z,8.37
2018-10-02T08:43:27.569Z,8.37
2018-10-02T08:44:27.467Z,8.36
2018-10-02T08:45:29.212Z,8.37
2018-10-02T08:46:27.469Z,8.39
2018-10-02T08:47:27.502Z,8.39
2018-10-02T08:48:27.425Z,8.43
2018-10-02T08:49:27.489Z,8.36
2018-10-02T08:50:27.427Z,8.42
2018-10-02T08:51:27.446Z,8.40
2018-10-02T08:52:27.395Z,8.54
2018-10-02T08:53:27.461Z,8.40
2018-10-02T08:54:27.355Z,8.46
2018-10-02T08:55:27.340Z,8.54
2018-10-02T08:56:27.409Z,8.52
2018-10-02T08:57:27.350Z,8.55
2018-10-02T08:58:27.371Z,8.50
2018-10-02T08:59:27.343Z,8.52
2018-10-02T09:00:27.309Z,8.49
2018-10-02T09:01:27.289Z,8.57
2018-10-02T09:02:27.283Z,8.58
2018-10-02T09:03:27.275Z,8.54
2018-10-02T09:04:27.311Z,8.50
2018-10-02T09:05:27.236Z,8.58
2018-10-02T09:06:27.312Z,8.54
2018-10-02T09:07:27.276Z,8.63
2018-10-02T09:08:27.198Z,8.67
2018-10-02T09:09:27.318Z,8.67
2018-10-02T09:10:27.746Z,8.52
2018-10-02T09:11:27.696Z,8.64
2018-10-02T09:12:27.231Z,8.65
2018-10-02T09:13:27.148Z,8.65
2018-10-02T09:14:27.207Z,8.75
2018-10-02T09:15:27.184Z,8.64
2018-10-02T09:16:27.152Z,8.63
2018-10-02T09:17:27.159Z,8.63
2018-10-02T09:18:27.104Z,8.63
2018-10-02T09:19:27.089Z,8.65
2018-10-02T09:20:27.090Z,8.82
2018-10-02T09:21:27.062Z,8.86
2018-10-02T09:22:27.039Z,8.89
2018-10-02T09:23:27.024Z,8.86
2018-10-02T09:24:27.124Z,8.89
2018-10-02T09:25:27.017Z,8.89
2018-10-02T09:26:26.996Z,8.94
2018-10-02T09:27:27.076Z,8.88
2018-10-02T09:28:27.088Z,8.93
2018-10-02T09:29:26.958Z,8.93
2018-10-02T09:30:27.125Z,8.89
2018-10-02T09:31:26.934Z,9.00
2018-10-02T09:32:26.927Z,9.04
2018-10-02T09:33:26.945Z,9.04
2018-10-02T09:34:26.979Z,9.06
2018-10-02T09:35:27.046Z,9.12
2018-10-02T09:36:26.899Z,9.19
2018-10-02T09:37:26.922Z,9.12
2018-10-02T09:38:26.895Z,9.06
2018-10-02T09:39:26.853Z,9.03
2018-10-02T09:40:26.831Z,9.15
2018-10-02T09:41:26.914Z,9.16
2018-10-02T09:42:26.831Z,9.17
2018-10-02T09:43:26.899Z,9.16
2018-10-02T09:44:26.814Z,9.20
2018-10-02T09:45:26.837Z,9.22
2018-10-02T09:46:26.857Z,9.22
2018-10-02T09:47:26.752Z,9.26
2018-10-02T09:48:26.832Z,9.26
2018-10-02T09:49:26.761Z,9.31
2018-10-02T09:50:26.756Z,9.20
2018-10-02T09:51:26.717Z,9.26
2018-10-02T09:52:26.739Z,9.32
2018-10-02T09:53:26.699Z,9.30
2018-10-02T09:54:26.717Z,9.34
2018-10-02T09:55:26.726Z,9.32
2018-10-02T09:56:26.660Z,9.41
2018-10-02T09:57:26.645Z,9.31
2018-10-02T09:58:26.650Z,9.34
2018-10-02T09:59:26.649Z,9.38
2018-10-02T10:00:26.609Z,9.45
2018-10-02T10:01:26.659Z,9.44
2018-10-02T10:02:26.591Z,9.34
2018-10-02T10:03:26.574Z,9.44
2018-10-02T10:04:26.736Z,9.35
2018-10-02T10:05:26.560Z,9.40
2018-10-02T10:06:26.548Z,9.40
2018-10-02T10:07:27.188Z,9.44
2018-10-02T10:08:26.525Z,9.45
2018-10-02T10:09:26.570Z,9.41
2018-10-02T10:10:26.562Z,9.48
2018-10-02T10:11:26.489Z,9.52
2018-10-02T10:12:26.483Z,9.49
2018-10-02T10:13:26.529Z,9.49
2018-10-02T10:14:26.487Z,9.52
2018-10-02T10:15:26.443Z,9.56
2018-10-02T10:16:26.615Z,9.48
2018-10-02T10:17:26.463Z,9.55
2018-10-02T10:18:26.561Z,9.55
2018-10-02T10:19:26.400Z,9.56
2018-10-02T10:20:26.402Z,9.55
2018-10-02T10:21:26.381Z,9.58
2018-10-02T10:22:26.462Z,9.56
2018-10-02T10:23:26.356Z,9.55
2018-10-02T10:24:26.348Z,9.56
2018-10-02T10:25:26.377Z,9.60
2018-10-02T10:26:26.340Z,9.49
2018-10-02T10:27:26.311Z,9.58
2018-10-02T10:28:26.338Z,9.56
2018-10-02T10:29:26.290Z,9.56
2018-10-02T10:30:26.302Z,9.49
2018-10-02T10:31:26.284Z,9.48
2018-10-02T10:32:26.255Z,9.45
2018-10-02T10:33:26.343Z,9.52
2018-10-02T10:34:26.407Z,9.45
2018-10-02T10:35:26.267Z,9.45
2018-10-02T10:36:26.219Z,9.35
2018-10-02T10:37:26.214Z,9.45
2018-10-02T10:38:27.135Z,9.45
2018-10-02T10:39:26.192Z,9.32
2018-10-02T10:40:26.253Z,9.34
2018-10-02T10:41:26.155Z,9.34
2018-10-02T10:42:26.138Z,9.44
2018-10-02T10:43:26.138Z,9.37
2018-10-02T10:44:26.131Z,9.31
2018-10-02T10:45:26.129Z,9.37
2018-10-02T10:46:26.136Z,9.27
2018-10-02T10:47:26.104Z,9.30
2018-10-02T10:48:26.091Z,9.27
2018-10-02T10:49:26.084Z,9.22
2018-10-02T10:50:26.085Z,9.38
2018-10-02T10:51:26.053Z,9.30
2018-10-02T10:52:26.061Z,9.35
2018-10-02T10:53:26.017Z,9.37
2018-10-02T10:54:26.004Z,9.37
2018-10-02T10:55:25.998Z,9.37
2018-10-02T10:56:26.153Z,9.45
2018-10-02T10:57:25.972Z,9.44
2018-10-02T10:58:26.016Z,9.42
2018-10-02T10:59:25.953Z,9.41
2018-10-02T11:00:25.938Z,9.44
2018-10-02T11:01:25.963Z,9.34
2018-10-02T11:02:25.917Z,9.42
2018-10-02T11:03:26.004Z,9.44
2018-10-02T11:04:26.003Z,9.42
2018-10-02T11:05:25.889Z,9.44
2018-10-02T11:06:25.885Z,9.40
2018-10-02T11:07:25.896Z,9.35
2018-10-02T11:08:25.959Z,9.44
2018-10-02T11:09:25.986Z,9.40
2018-10-02T11:10:25.839Z,9.48
2018-10-02T11:11:25.836Z,9.44
2018-10-02T11:12:25.815Z,9.41
2018-10-02T11:13:25.807Z,9.48
2018-10-02T11:14:25.801Z,9.45
2018-10-02T11:15:25.888Z,9.45
2018-10-02T11:16:25.817Z,9.45
2018-10-02T11:17:25.779Z,9.44
2018-10-02T11:18:25.746Z,9.42
2018-10-02T11:19:25.908Z,9.42
2018-10-02T11:20:25.741Z,9.45
2018-10-02T11:21:25.706Z,9.44
2018-10-02T11:22:25.715Z,9.40
2018-10-02T11:23:25.690Z,9.48
2018-10-02T11:24:25.711Z,9.45
2018-10-02T11:25:25.918Z,9.50
2018-10-02T11:26:25.673Z,9.53
2018-10-02T11:27:25.651Z,9.62
2018-10-02T11:28:25.663Z,9.59
2018-10-02T11:29:25.617Z,9.59
2018-10-02T11:30:25.646Z,9.63
2018-10-02T11:31:25.761Z,9.59
2018-10-02T11:32:25.591Z,9.59
2018-10-02T11:33:25.586Z,9.59
2018-10-02T11:34:26.318Z,9.63
2018-10-02T11:35:25.594Z,9.55
2018-10-02T11:36:25.539Z,9.68
2018-10-02T11:37:25.605Z,9.59
2018-10-02T11:38:25.567Z,9.59
2018-10-02T11:39:25.614Z,9.73
2018-10-02T11:40:25.513Z,9.74
2018-10-02T11:41:25.507Z,9.73
2018-10-02T11:42:25.480Z,9.68
2018-10-02T11:43:25.760Z,9.62
2018-10-02T11:44:25.507Z,9.78
2018-10-02T11:45:25.574Z,9.75
2018-10-02T11:46:26.235Z,9.75
2018-10-02T11:47:25.414Z,9.74
2018-10-02T11:48:25.454Z,9.81
2018-10-02T11:49:25.653Z,9.80
2018-10-02T11:50:25.514Z,9.78
2018-10-02T11:51:25.384Z,9.80
2018-10-02T11:52:25.571Z,9.78
2018-10-02T11:53:25.358Z,9.89
2018-10-02T11:54:25.369Z,9.86
2018-10-02T11:55:25.571Z,9.89
2018-10-02T11:56:25.328Z,9.89
2018-10-02T11:57:25.355Z,9.88
2018-10-02T11:58:25.402Z,9.93
2018-10-02T11:59:25.374Z,9.95
2018-10-02T12:00:25.291Z,9.91
2018-10-02T12:01:25.342Z,9.93
2018-10-02T12:02:25.298Z,9.91
2018-10-02T12:03:25.413Z,9.96
2018-10-02T12:04:25.280Z,9.93
2018-10-02T12:05:25.238Z,10.02
2018-10-02T12:06:25.205Z,9.96
2018-10-02T12:07:25.197Z,10.06
2018-10-02T12:08:25.244Z,10.01
2018-10-02T12:09:25.165Z,10.07
2018-10-02T12:10:25.155Z,10.04
2018-10-02T12:11:25.197Z,10.09
2018-10-02T12:12:25.199Z,10.14
2018-10-02T12:13:25.168Z,10.17
2018-10-02T12:14:25.430Z,10.20
2018-10-02T12:15:25.118Z,10.14
2018-10-02T12:16:25.088Z,10.24
2018-10-02T12:17:25.079Z,10.22
2018-10-02T12:18:25.115Z,10.22
2018-10-02T12:19:25.147Z,10.28
2018-10-02T12:20:25.059Z,10.24
2018-10-02T12:21:25.030Z,10.25
2018-10-02T12:22:25.028Z,10.22
2018-10-02T12:23:25.056Z,10.20
2018-10-02T12:24:25.024Z,10.25
2018-10-02T12:25:25.004Z,10.26
2018-10-02T12:26:24.981Z,10.29
2018-10-02T12:27:24.970Z,10.28
2018-10-02T12:28:24.965Z,10.32
2018-10-02T12:29:25.000Z,10.34
2018-10-02T12:30:24.969Z,10.36
2018-10-02T12:31:25.091Z,10.35
2018-10-02T12:32:24.926Z,10.36
2018-10-02T12:33:25.085Z,10.43
2018-10-02T12:34:24.898Z,10.42
2018-10-02T12:39:48.268Z,10.36
2018-10-02T12:40:53.503Z,10.38
2018-10-02T12:43:02.327Z,10.55
2018-10-02T12:44:01.632Z,10.43
2018-10-02T12:45:01.623Z,10.38
2018-10-02T12:46:01.570Z,10.55
2018-10-02T12:47:02.321Z,10.54
2018-10-02T12:48:03.422Z,10.57
2018-10-02T12:49:01.428Z,10.52
2018-10-02T13:00:58.029Z,10.47
2018-10-02T13:07:43.227Z,10.49
2018-10-02T13:08:42.965Z,10.55
2018-10-02T13:15:51.177Z,10.55
2018-10-02T13:16:50.207Z,10.55
2018-10-02T13:17:50.193Z,10.68
2018-10-02T13:18:51.985Z,10.69
2018-10-02T13:19:52.029Z,10.70
2018-10-02T13:40:07.791Z,10.94
2018-10-02T13:48:03.709Z,11.08
2018-10-02T14:27:52.198Z,11.70
2018-10-02T14:28:50.960Z,11.62
2018-10-02T14:30:01.538Z,11.70
2018-10-02T14:30:50.799Z,11.72
2018-10-02T14:31:51.064Z,11.79
2018-10-02T14:46:07.490Z,12.00
2018-10-02T14:47:07.252Z,12.08
2018-10-02T14:48:07.158Z,12.08
2018-10-02T14:49:07.140Z,12.08
2018-10-02T14:50:07.077Z,12.13
2018-10-02T14:51:07.173Z,12.15
2018-10-02T14:52:07.080Z,12.15
2018-10-02T14:53:07.076Z,12.13
2018-10-02T14:54:08.676Z,12.08
2018-10-02T14:55:07.247Z,12.05
2018-10-02T14:56:07.016Z,12.21
2018-10-02T14:57:07.002Z,12.29
2018-10-02T14:58:06.989Z,12.30
2018-10-02T14:59:07.000Z,12.23
2018-10-02T15:00:07.193Z,12.23
2018-10-02T15:01:07.001Z,12.26
2018-10-02T15:02:07.048Z,12.37
2018-10-02T15:03:06.959Z,12.33
2018-10-02T15:04:06.934Z,12.41
2018-10-02T15:05:06.914Z,12.34
2018-10-02T15:06:06.929Z,12.40
2018-10-02T15:07:06.943Z,12.37
2018-10-02T15:08:06.886Z,12.48
2018-10-02T15:09:06.915Z,12.52
2018-10-02T15:10:07.135Z,12.49
2018-10-02T15:11:06.848Z,12.52
2018-10-02T15:12:06.921Z,12.55
2018-10-02T15:13:06.920Z,12.55
2018-10-02T15:14:06.911Z,12.62
2018-10-02T15:15:06.827Z,12.70
2018-10-02T15:16:21.544Z,12.70
2018-10-02T15:20:13.399Z,12.79
2018-10-02T15:21:13.156Z,12.70
2018-10-02T15:22:13.191Z,12.89
2018-10-02T15:23:13.260Z,12.71
2018-10-02T15:24:13.188Z,12.84
2018-10-02T15:25:12.912Z,12.87
2018-10-02T15:26:13.517Z,12.80
2018-10-02T15:46:43.984Z,12.96
2018-10-02T15:47:43.408Z,12.98
2018-10-02T15:48:43.332Z,12.99
2018-10-02T15:49:43.126Z,12.98
2018-10-02T15:50:43.150Z,12.96
2018-10-02T15:51:43.786Z,13.01
2018-10-02T16:14:32.002Z,12.96
2018-10-02T16:17:59.847Z,12.99
2018-10-02T16:44:05.263Z,12.99
2018-10-02T17:10:54.329Z,13.28
2018-10-02T17:12:24.609Z,13.22
2018-10-02T17:12:52.988Z,13.29
2018-10-02T17:13:52.853Z,13.22
2018-10-02T17:14:54.619Z,13.14
2018-10-02T17:25:46.646Z,13.14
2018-10-02T17:26:46.250Z,13.13
2018-10-02T17:27:46.176Z,13.21
2018-10-02T17:28:46.280Z,13.22
2018-10-02T17:29:46.109Z,13.28
2018-10-02T17:30:46.106Z,13.25
2018-10-02T17:31:47.846Z,13.28
2018-10-02T17:32:46.131Z,13.21
2018-10-02T17:33:46.883Z,13.16
2018-10-02T17:36:05.494Z,13.17
2018-10-02T17:39:00.011Z,13.07
2018-10-02T17:40:00.124Z,13.04
2018-10-02T17:41:21.471Z,13.13
2018-10-02T17:42:00.009Z,13.07
2018-10-02T18:08:46.477Z,13.01
2018-10-02T18:09:46.123Z,12.98
2018-10-02T18:10:49.040Z,12.91
2018-10-02T18:11:46.335Z,13.01
2018-10-02T18:12:45.966Z,12.88
2018-10-02T18:13:46.231Z,12.85
2018-10-02T18:14:57.030Z,12.87
2018-10-02T18:15:58.079Z,12.84
2018-10-02T18:18:06.993Z,12.87
2018-10-02T18:21:22.487Z,12.74
2018-10-02T18:22:23.648Z,12.76
2018-10-02T18:23:22.050Z,12.79
2018-10-02T18:24:22.491Z,12.79
2018-10-02T18:26:47.683Z,12.91
2018-10-02T18:27:43.992Z,12.87
2018-10-02T18:32:55.891Z,12.74
2018-10-02T18:33:55.500Z,12.69
2018-10-02T18:34:56.059Z,12.63
2018-10-02T18:35:55.554Z,12.66
2018-10-02T18:36:55.246Z,12.69
2018-10-02T18:37:55.273Z,12.59
2018-10-02T18:38:55.299Z,12.61
2018-10-02T18:39:55.299Z,12.61
2018-10-02T18:40:55.259Z,12.61
2018-10-02T18:41:55.201Z,12.62
2018-10-02T18:42:55.249Z,12.56
2018-10-02T18:43:55.175Z,12.54
2018-10-02T18:44:55.278Z,12.54
2018-10-02T18:45:55.224Z,12.51
2018-10-02T19:05:36.572Z,12.49
2018-10-02T19:06:36.537Z,12.46
2018-10-02T19:07:40.275Z,12.40
2018-10-02T19:10:06.245Z,12.40
2018-10-02T19:11:06.070Z,12.21
2018-10-02T19:12:05.823Z,12.26
2018-10-02T19:13:07.356Z,12.30
2018-10-02T19:14:14.233Z,12.22
2018-10-02T19:15:06.116Z,12.22
2018-10-02T19:16:05.607Z,12.25
2018-10-02T19:17:05.560Z,12.16
2018-10-02T19:18:05.641Z,12.23
2018-10-02T19:19:05.551Z,12.13
2018-10-02T19:20:05.431Z,12.12
2018-10-02T19:21:05.492Z,12.11
2018-10-02T19:22:05.772Z,12.15
2018-10-02T19:26:54.607Z,12.11
2018-10-02T19:27:54.829Z,12.11
2018-10-02T19:29:06.104Z,12.13
2018-10-02T19:29:54.185Z,12.08
2018-10-02T19:30:54.433Z,12.16
2018-10-02T19:31:54.804Z,12.11
2018-10-02T19:32:54.337Z,12.12
2018-10-02T19:35:10.066Z,12.11
2018-10-02T19:36:09.665Z,12.11
2018-10-02T19:37:09.610Z,12.16
2018-10-02T19:38:10.098Z,12.12
2018-10-02T19:39:09.528Z,12.07
2018-10-02T19:41:31.439Z,12.15
2018-10-02T19:44:26.306Z,12.01
2018-10-02T19:45:25.946Z,12.07
2018-10-02T19:46:25.926Z,11.98
2018-10-02T19:47:25.891Z,12.04
2018-10-02T19:48:25.765Z,12.01
2018-10-02T19:49:25.748Z,12.01
2018-10-02T19:50:25.761Z,12.04
2018-10-02T19:51:25.728Z,11.90
2018-10-02T19:52:25.735Z,11.93
2018-10-02T19:53:25.829Z,11.88
2018-10-02T19:54:25.732Z,11.96
2018-10-02T19:55:25.693Z,11.93
2018-10-02T19:56:25.775Z,11.84
2018-10-02T19:57:27.128Z,11.96
2018-10-02T20:04:04.546Z,11.85
2018-10-02T20:05:04.110Z,11.87
2018-10-02T20:06:04.036Z,11.87
2018-10-02T20:07:04.354Z,11.96
2018-10-02T20:08:04.395Z,11.85
2018-10-02T20:09:04.028Z,11.93
2018-10-02T20:10:03.948Z,11.87
2018-10-02T20:11:03.946Z,11.87
2018-10-02T20:12:03.943Z,11.88
2018-10-02T20:13:03.915Z,11.78
2018-10-02T20:14:03.875Z,11.77
2018-10-02T20:15:03.952Z,11.77
2018-10-02T20:16:03.857Z,11.81
2018-10-02T20:17:03.839Z,11.78
2018-10-02T20:21:45.181Z,11.75
2018-10-02T20:22:44.719Z,11.69
2018-10-02T20:23:45.615Z,11.72
2018-10-02T20:24:44.820Z,11.64
2018-10-02T20:25:44.681Z,11.64
2018-10-02T20:26:44.643Z,11.62
2018-10-02T20:27:44.643Z,11.60
2018-10-02T20:28:44.616Z,11.75
2018-10-02T20:29:44.606Z,11.81
2018-10-02T20:30:44.627Z,11.74
2018-10-02T20:31:44.598Z,11.74
2018-10-02T20:32:44.664Z,11.69
2018-10-02T20:33:44.582Z,11.78
2018-10-02T20:34:44.548Z,11.69
2018-10-02T20:35:44.566Z,11.66
2018-10-02T20:36:44.570Z,11.70
2018-10-02T20:37:44.560Z,11.70
2018-10-02T20:38:44.511Z,11.70
2018-10-02T20:39:44.529Z,11.74
